Wawarsing, NY (12489)

8:08 AM EDT on April 26, 2017 (GMT -0400)
Ulster Heights | | Change Station

Elev 1184 ft 41.79 °N, 74.46 °W | Updated 8 seconds ago

Overcast
Overcast
51.4 °F
Feels Like 51.4 °F
N
2.7
Wind Variable Wind from NNE
Gusts 2.7 mph

Today
High -- | Low -- °F
--% Chance of Precip.
Yesterday
High -- | Low -- °F
Precip. -- in
Pressure 29.80 in
Visibility 9.0 miles
Clouds Overcast 600 ft
Dew Point 51 °F
Humidity 99%
Rainfall 0.07 in
Snow Depth Not available.
6:00 AM 7:50 PM
Waning Crescent, 0% visible
METAR KMGJ 261154Z AUTO 03012KT 9SM -RA OVC006 11/10 A2980 RMK AO2 SLP090 P0001 60003 70029 T01110100 10111 20106 58002 TSNO
Pressure 29.80 in
Visibility 9.0 miles
Clouds Overcast 600 ft
Dew Point 51 °F
Humidity 99%
Rainfall 0.07 in
Snow Depth Not available.
6:00 AM 7:50 PM
Waning Crescent, 0% visible
METAR KMGJ 261154Z AUTO 03012KT 9SM -RA OVC006 11/10 A2980 RMK AO2 SLP090 P0001 60003 70029 T01110100 10111 20106 58002 TSNO

Get Severe Weather Alerts

Thanks for signing up!

Be on the lookout for a verification email in your inbox.

You'll start receiving the daily forecast at 8 AM.

×

10-Day Weather Forecast

Almanac

Astronomy

Apr. 26, 2017 Rise Set
Actual Time
Civil Twilight
Nautical Twilight
Astronomical Twilight
Moon
Length of Visible Light
Length of Day
Tomorrow will be .
, % of the Moon is Illuminated

Today's Extremes

State Highs State Lows

Community

WunderPhotos

WunderBlog® & News

Nearby

Air Quality

  Air Quality AQ Index Pollutant
Not available.

Snow Depth

Station Depth Elevation

Earthquake Activity

City Distance Mag. Time & Date
Minimum magnitude displayed is 2.5.

Coastal Water Temperatures

Place Temperature

Stations

Nearby Weather Stations

Station Location Temp. Windchill Dew Point Humidity Wind Precip. Elev Updated Type
                   

Watches & Warnings

There are currently no watches in effect.